Catawba, NC

2:21 PM EST on December 26, 2014 (GMT -0500)
Catawba, NC | Change Station
CLOSE
Current Station
Personal Weather Station
Location: Catawba, NC
Elevation: 771 ft
Nearby Weather Stations

Elev 771 ft 35.71 °N, 81.06 °W | Updated 0 second ago

Clear
Clear
56.7 °F
Feels Like 56.7 °F
N
2.3
Wind Variable Wind from ESE
Gusts 2.3 mph

Today
High -- | Low -- °F
--% Chance of Precip.
Yesterday
High -- | Low -- °F
Precip. -- in
7:32 AM 5:17 PM
Waxing Crescent, 28% visible
Pressure 30.26 in
Visibility 10.0 miles
Clouds Clear
Dew Point 38 °F
Humidity 50%
Rainfall 0.00 in
Snow Depth Not available.
UV 2 out of 12
Pollen .90 out of 12
Air Quality Not available.
Flu Activity Not available.
METAR KSVH 261915Z AUTO 24005KT 10SM CLR 14/02 A3026 RMK AO2 T01390022

More Conditions Fewer Conditions

Pressure 30.26 in
Visibility 10.0 miles
Clouds Clear
Dew Point 38 °F
Humidity 50%
Rainfall 0.00 in
Snow Depth Not available.
UV 2 out of 12
Pollen .90 out of 12
Air Quality Not available.
Flu Activity Not available.
METAR KSVH 261915Z AUTO 24005KT 10SM CLR 14/02 A3026 RMK AO2 T01390022

More Conditions Fewer Conditions

10-Day Weather Forecast

Almanac

Astronomy

Dec. 26, 2014 Rise Set
Actual Time
Civil Twilight
Nautical Twilight
Astronomical Twilight
Moon
Length of Visible Light
Length of Day
Tomorrow will be .
, % of the Moon is Illuminated

Today's Extremes

State Highs State Lows

Community

WunderPhotos

Upload Photos

1,780,675 photos uploaded!

WunderBlogs® & News

Nearby

Air Quality

  Air Quality AQ Index Pollutant
Not available.

Snow Depth

Station Depth Elevation

Earthquake Activity

City Distance Mag. Time & Date
Minimum magnitude displayed is 2.5.

Coastal Water Temperatures

Place Temperature

Nearby Weather Stations